createdAt,value
2023-05-01T00:00:28.669Z,10.70
2023-05-01T00:02:56.463Z,10.00
2023-05-01T00:05:23.324Z,9.80
2023-05-01T00:07:50.743Z,9.60
2023-05-01T00:10:18.437Z,10.10
2023-05-01T00:12:45.722Z,9.90
2023-05-01T00:15:12.554Z,9.70
2023-05-01T00:17:39.611Z,9.60
2023-05-01T00:20:07.307Z,9.10
2023-05-01T00:22:34.110Z,9.70
2023-05-01T00:25:01.103Z,9.10
2023-05-01T00:27:27.906Z,9.00
2023-05-01T00:29:54.927Z,9.10
2023-05-01T00:32:21.977Z,9.60
2023-05-01T00:34:49.383Z,8.60
2023-05-01T00:37:17.684Z,8.90
2023-05-01T00:39:44.494Z,8.20
2023-05-01T00:42:11.468Z,8.60
2023-05-01T00:44:38.413Z,9.00
2023-05-01T00:47:05.273Z,9.00
2023-05-01T00:49:32.107Z,9.20
2023-05-01T00:51:59.002Z,8.70
2023-05-01T00:54:27.793Z,9.30
2023-05-01T00:56:55.035Z,8.60
2023-05-01T00:59:22.484Z,9.30
2023-05-01T01:01:49.274Z,9.10
2023-05-01T01:04:16.071Z,9.50
2023-05-01T01:06:59.038Z,9.10
2023-05-01T01:09:31.858Z,9.50
2023-05-01T01:12:07.835Z,9.60
2023-05-01T01:16:42.438Z,10.40
2023-05-01T01:19:43.998Z,9.70
2023-05-01T01:22:13.642Z,10.40
2023-05-01T01:24:48.655Z,10.40
2023-05-01T01:27:33.880Z,10.90
2023-05-01T01:30:29.519Z,10.90
2023-05-01T01:33:25.484Z,10.40
2023-05-01T01:36:00.128Z,10.40
2023-05-01T01:38:48.419Z,11.20
2023-05-01T01:41:29.148Z,10.10
2023-05-01T01:44:05.345Z,10.10
2023-05-01T01:46:35.752Z,10.40
2023-05-01T01:49:06.993Z,11.40
2023-05-01T01:51:34.667Z,11.00
2023-05-01T01:54:01.992Z,11.10
2023-05-01T01:56:29.013Z,11.40
2023-05-01T01:58:56.061Z,12.30
2023-05-01T02:01:23.244Z,11.00
2023-05-01T02:03:50.132Z,11.40
2023-05-01T02:06:17.170Z,11.00
2023-05-01T02:08:44.394Z,11.20
2023-05-01T02:11:11.504Z,11.10
2023-05-01T02:13:38.916Z,11.40
2023-05-01T02:16:06.516Z,11.40
2023-05-01T02:18:33.253Z,11.90
2023-05-01T02:21:00.030Z,11.40
2023-05-01T02:23:30.974Z,11.50
2023-05-01T02:25:57.905Z,11.10
2023-05-01T02:28:25.032Z,10.80
2023-05-01T02:30:52.721Z,11.10
2023-05-01T02:33:20.504Z,11.80
2023-05-01T02:35:47.881Z,10.80
2023-05-01T02:38:16.463Z,10.90
2023-05-01T02:40:46.461Z,11.20
2023-05-01T02:43:17.868Z,10.50
2023-05-01T02:45:45.078Z,11.10
2023-05-01T02:48:13.884Z,10.90
2023-05-01T02:50:42.924Z,10.70
2023-05-01T02:53:10.280Z,10.40
2023-05-01T02:55:43.748Z,10.90
2023-05-01T02:58:20.323Z,10.90
2023-05-01T03:00:49.801Z,11.00
2023-05-01T03:03:17.985Z,10.70
2023-05-01T03:05:47.688Z,11.10
2023-05-01T03:08:14.802Z,10.20
2023-05-01T03:10:44.470Z,10.90
2023-05-01T03:13:11.835Z,10.70
2023-05-01T03:15:39.015Z,10.80
2023-05-01T03:18:06.010Z,10.80
2023-05-01T03:20:33.031Z,9.90
2023-05-01T03:23:00.138Z,10.10
2023-05-01T03:25:27.001Z,10.50
2023-05-01T03:27:55.259Z,9.50
2023-05-01T03:30:22.769Z,9.20
2023-05-01T03:32:51.682Z,8.30
2023-05-01T03:35:22.096Z,8.30
2023-05-01T03:37:49.204Z,8.50
2023-05-01T03:40:26.404Z,7.20
2023-05-01T03:42:56.117Z,6.90
2023-05-01T03:45:23.618Z,6.30
2023-05-01T03:47:50.567Z,6.60
2023-05-01T03:50:17.770Z,6.50
2023-05-01T03:52:45.083Z,6.70
2023-05-01T03:55:12.003Z,5.90
2023-05-01T04:00:47.433Z,5.60
2023-05-01T04:03:14.474Z,5.40
2023-05-01T04:05:41.761Z,5.30
2023-05-01T04:08:09.254Z,5.70
2023-05-01T04:10:36.350Z,5.50
2023-05-01T04:13:05.093Z,5.40
2023-05-01T04:15:32.572Z,5.20
2023-05-01T04:17:59.653Z,5.20
2023-05-01T04:20:27.001Z,5.40
2023-05-01T04:22:55.125Z,5.50
2023-05-01T04:25:22.093Z,5.50
2023-05-01T04:27:50.149Z,5.00
2023-05-01T04:30:17.037Z,4.90
2023-05-01T04:32:44.090Z,5.10
2023-05-01T04:35:12.403Z,4.90
2023-05-01T04:37:41.163Z,5.00
2023-05-01T04:40:11.684Z,4.90
2023-05-01T04:42:39.287Z,4.10
2023-05-01T04:45:07.495Z,4.40
2023-05-01T04:47:35.738Z,4.30
2023-05-01T04:50:02.757Z,4.20
2023-05-01T04:52:30.534Z,4.40
2023-05-01T04:54:59.367Z,4.20
2023-05-01T04:57:27.947Z,5.00
2023-05-01T04:59:55.011Z,4.60
2023-05-01T05:02:22.196Z,4.40
2023-05-01T05:04:49.230Z,5.20
2023-05-01T05:07:16.751Z,4.90
2023-05-01T05:10:13.142Z,4.30
2023-05-01T05:12:40.312Z,4.10
2023-05-01T05:15:07.824Z,4.10
2023-05-01T05:17:35.445Z,4.40
2023-05-01T05:20:02.602Z,4.10
2023-05-01T05:22:30.203Z,4.30
2023-05-01T05:25:14.418Z,4.00
2023-05-01T05:27:41.183Z,3.80
2023-05-01T05:30:09.149Z,4.50
2023-05-01T05:32:36.668Z,3.80
2023-05-01T05:35:05.494Z,3.90
2023-05-01T05:37:33.031Z,3.70
2023-05-01T05:40:00.072Z,4.20
2023-05-01T05:42:27.479Z,3.70
2023-05-01T05:44:54.311Z,4.20
2023-05-01T05:47:21.428Z,3.60
2023-05-01T05:49:48.737Z,4.10
2023-05-01T05:52:15.749Z,3.70
2023-05-01T05:54:42.948Z,4.40
2023-05-01T05:57:10.030Z,3.70
2023-05-01T05:59:39.024Z,5.30
2023-05-01T06:02:06.093Z,3.90
2023-05-01T06:04:33.152Z,3.70
2023-05-01T06:07:00.397Z,3.80
2023-05-01T06:09:27.352Z,3.50
2023-05-01T06:11:54.108Z,3.30
2023-05-01T06:14:20.855Z,3.60
2023-05-01T06:16:47.707Z,4.10
2023-05-01T06:19:16.501Z,4.80
2023-05-01T06:21:43.944Z,3.30
2023-05-01T06:24:11.378Z,3.10
2023-05-01T06:27:00.800Z,4.20
2023-05-01T06:29:28.675Z,4.80
2023-05-01T06:31:56.138Z,3.50
2023-05-01T06:34:23.180Z,3.30
2023-05-01T06:36:52.834Z,3.70
2023-05-01T06:39:19.927Z,3.30
2023-05-01T06:41:47.597Z,4.40
2023-05-01T06:44:15.424Z,4.00
2023-05-01T06:46:42.410Z,3.20
2023-05-01T06:49:09.349Z,3.40
2023-05-01T06:51:36.587Z,3.60
2023-05-01T06:54:03.433Z,5.10
2023-05-01T06:56:30.364Z,3.30
2023-05-01T06:58:57.291Z,3.10
2023-05-01T07:01:24.220Z,3.00
2023-05-01T07:03:51.565Z,3.00
2023-05-01T07:06:19.087Z,3.50
2023-05-01T07:08:46.014Z,3.00
2023-05-01T07:11:12.857Z,3.30
2023-05-01T07:13:39.776Z,3.80
2023-05-01T07:16:07.848Z,3.60
2023-05-01T07:18:34.982Z,3.30
2023-05-01T07:21:02.164Z,4.00
2023-05-01T07:23:29.247Z,2.90
2023-05-01T07:25:57.354Z,2.70
2023-05-01T07:28:24.190Z,3.10
2023-05-01T07:30:51.465Z,2.40
2023-05-01T07:33:18.833Z,2.60
2023-05-01T07:35:45.716Z,2.90
2023-05-01T07:38:14.114Z,3.30
2023-05-01T07:40:41.124Z,2.90
2023-05-01T07:43:11.297Z,3.00
2023-05-01T07:45:43.052Z,3.10
2023-05-01T07:48:10.066Z,3.40
2023-05-01T07:50:36.953Z,5.30
2023-05-01T07:53:04.777Z,2.60
2023-05-01T07:55:31.715Z,2.40
2023-05-01T07:57:58.751Z,2.40
2023-05-01T08:00:25.715Z,2.40
2023-05-01T08:02:52.669Z,2.40
2023-05-01T08:05:19.737Z,2.10
2023-05-01T08:07:46.568Z,2.00
2023-05-01T08:10:14.554Z,1.90
2023-05-01T08:12:41.383Z,2.20
2023-05-01T08:15:08.722Z,2.50
2023-05-01T08:17:36.536Z,2.20
2023-05-01T08:20:04.258Z,2.00
2023-05-01T08:22:32.085Z,1.90
2023-05-01T08:24:58.826Z,2.20
2023-05-01T08:27:26.376Z,2.10
2023-05-01T08:29:53.458Z,2.00
2023-05-01T08:32:20.327Z,1.90
2023-05-01T08:34:47.077Z,2.10
2023-05-01T08:37:14.775Z,2.10
2023-05-01T08:39:42.363Z,1.80
2023-05-01T08:42:09.107Z,2.10
2023-05-01T08:44:38.329Z,1.90
2023-05-01T08:47:08.384Z,1.90
2023-05-01T08:49:35.343Z,2.30
2023-05-01T08:52:02.678Z,2.00
2023-05-01T08:54:31.138Z,2.00
2023-05-01T08:57:02.603Z,2.20
2023-05-01T08:59:36.464Z,2.20
2023-05-01T09:02:05.410Z,2.20
2023-05-01T09:04:33.175Z,1.50
2023-05-01T09:07:02.841Z,2.50
2023-05-01T09:09:30.039Z,2.00
2023-05-01T09:12:18.186Z,2.00
2023-05-01T09:14:45.703Z,2.00
2023-05-01T09:17:12.527Z,1.90
2023-05-01T09:19:40.904Z,1.50
2023-05-01T09:22:08.159Z,1.70
2023-05-01T09:24:34.941Z,1.90
2023-05-01T09:27:01.811Z,1.90
2023-05-01T09:29:39.275Z,1.90
2023-05-01T09:32:23.658Z,2.60
2023-05-01T09:34:51.617Z,2.60
2023-05-01T09:37:29.147Z,1.80
2023-05-01T09:40:06.306Z,1.90
2023-05-01T09:42:34.287Z,1.90
2023-05-01T09:45:02.094Z,1.90
2023-05-01T09:47:29.625Z,2.00
2023-05-01T09:49:57.963Z,2.40
2023-05-01T09:52:29.032Z,1.90
2023-05-01T09:55:15.148Z,1.90
2023-05-01T09:57:42.934Z,2.10
2023-05-01T10:00:11.172Z,2.00
2023-05-01T10:02:39.689Z,2.60
2023-05-01T10:05:07.439Z,1.60
2023-05-01T10:07:34.708Z,1.80
2023-05-01T10:10:21.226Z,2.10
2023-05-01T10:12:48.843Z,1.60
2023-05-01T10:15:24.683Z,2.30
2023-05-01T10:17:52.543Z,1.80
2023-05-01T10:20:23.594Z,2.10
2023-05-01T10:22:51.955Z,1.70
2023-05-01T10:25:18.840Z,2.50
2023-05-01T10:27:45.702Z,2.10
2023-05-01T10:30:12.951Z,2.20
2023-05-01T10:32:41.353Z,2.20
2023-05-01T10:35:16.587Z,1.80
2023-05-01T10:37:48.052Z,2.30
2023-05-01T10:40:40.309Z,2.00
2023-05-01T10:43:28.055Z,2.00
2023-05-01T10:46:21.578Z,2.20
2023-05-01T10:48:51.688Z,2.10
2023-05-01T10:51:27.726Z,2.20
2023-05-01T10:54:14.034Z,1.90
2023-05-01T10:56:43.062Z,2.00
2023-05-01T10:59:10.725Z,2.40
2023-05-01T11:01:40.078Z,1.80
2023-05-01T11:04:08.715Z,2.50
2023-05-01T11:06:36.589Z,2.00
2023-05-01T11:09:42.241Z,2.50
2023-05-01T11:12:32.956Z,1.80
2023-05-01T11:15:04.796Z,2.30
2023-05-01T11:17:41.387Z,2.40
2023-05-01T11:20:08.814Z,2.30
2023-05-01T11:22:36.612Z,1.80
2023-05-01T11:25:06.749Z,2.10
2023-05-01T11:27:33.535Z,2.10
2023-05-01T11:30:00.319Z,2.10
2023-05-01T11:32:28.063Z,2.00
2023-05-01T11:34:55.405Z,2.20
2023-05-01T11:37:42.020Z,2.20
2023-05-01T11:40:21.582Z,2.10
2023-05-01T11:42:48.986Z,2.10
2023-05-01T11:45:16.131Z,2.10
2023-05-01T11:47:43.025Z,2.00
2023-05-01T11:50:10.786Z,2.10
2023-05-01T11:52:55.040Z,2.30
2023-05-01T11:55:22.162Z,2.20
2023-05-01T12:00:47.427Z,2.00
2023-05-01T12:03:15.652Z,3.40
2023-05-01T12:05:43.973Z,2.20
2023-05-01T12:08:21.412Z,1.90
2023-05-01T12:10:53.498Z,1.80
2023-05-01T12:13:20.835Z,3.20
2023-05-01T12:15:50.835Z,1.90
2023-05-01T12:18:18.102Z,1.60
2023-05-01T12:20:52.011Z,2.60
2023-05-01T12:23:39.196Z,1.70
2023-05-01T12:26:25.785Z,1.70
2023-05-01T12:28:56.858Z,1.70
2023-05-01T12:31:24.697Z,1.80
2023-05-01T12:34:01.962Z,2.10
2023-05-01T12:36:31.749Z,1.80
2023-05-01T12:39:06.065Z,1.40
2023-05-01T12:41:43.461Z,2.10
2023-05-01T12:44:20.125Z,1.70
2023-05-01T12:46:53.793Z,1.70
2023-05-01T12:49:21.519Z,1.80
2023-05-01T12:51:52.803Z,1.90
2023-05-01T12:54:23.864Z,1.40
2023-05-01T12:56:53.208Z,1.70
2023-05-01T12:59:21.650Z,1.80
2023-05-01T13:01:49.105Z,1.90
2023-05-01T13:04:22.730Z,1.50
2023-05-01T13:06:49.905Z,1.40
2023-05-01T13:09:17.946Z,1.40
2023-05-01T13:12:05.885Z,1.30
2023-05-01T13:14:40.607Z,1.50
2023-05-01T13:17:11.819Z,1.60
2023-05-01T13:19:39.130Z,1.40
2023-05-01T13:22:06.366Z,1.30
2023-05-01T13:24:39.666Z,1.60
2023-05-01T13:27:11.343Z,1.80
2023-05-01T13:29:38.759Z,2.10
2023-05-01T13:34:06.547Z,1.80
2023-05-01T13:36:33.637Z,1.30
2023-05-01T13:39:00.491Z,1.20
2023-05-01T13:41:27.666Z,1.30
2023-05-01T13:43:56.471Z,1.00
2023-05-01T13:46:24.285Z,1.70
2023-05-01T13:48:51.431Z,1.70
2023-05-01T13:51:23.809Z,1.20
2023-05-01T13:53:50.614Z,1.30
2023-05-01T13:56:17.576Z,1.20
2023-05-01T13:58:44.917Z,1.00
2023-05-01T14:01:16.585Z,1.80
2023-05-01T14:03:43.671Z,2.10
2023-05-01T14:06:18.154Z,1.10
2023-05-01T14:08:46.513Z,1.00
2023-05-01T14:11:14.212Z,1.10
2023-05-01T14:13:42.273Z,1.80
2023-05-01T14:16:13.413Z,1.10
2023-05-01T14:18:47.616Z,1.50
2023-05-01T14:21:15.509Z,1.00
2023-05-01T14:23:42.883Z,1.00
2023-05-01T14:26:11.291Z,2.20
2023-05-01T14:28:43.215Z,1.30
2023-05-01T14:31:25.420Z,1.40
2023-05-01T14:33:55.460Z,1.10
2023-05-01T14:36:22.423Z,2.00
2023-05-01T14:38:50.837Z,1.40
2023-05-01T14:41:18.832Z,1.90
2023-05-01T14:43:45.586Z,1.30
2023-05-01T14:46:13.775Z,1.00
2023-05-01T14:48:41.636Z,1.00
2023-05-01T14:51:12.736Z,1.10
2023-05-01T14:53:42.455Z,1.30
2023-05-01T14:56:09.338Z,1.10
2023-05-01T14:58:36.428Z,1.60
2023-05-01T15:01:03.499Z,1.20
2023-05-01T15:03:30.710Z,1.10
2023-05-01T15:05:57.776Z,1.60
2023-05-01T15:08:25.141Z,1.30
2023-05-01T15:10:53.201Z,1.60
2023-05-01T15:20:56.762Z,1.30
2023-05-01T15:23:25.200Z,1.00
2023-05-01T15:25:52.160Z,1.50
2023-05-01T15:28:19.230Z,1.40
2023-05-01T15:30:46.697Z,1.00
2023-05-01T15:33:16.896Z,1.50
2023-05-01T15:35:48.897Z,1.40
2023-05-01T15:38:16.309Z,1.20
2023-05-01T15:40:43.529Z,1.20
2023-05-01T15:43:10.315Z,1.00
2023-05-01T15:45:43.167Z,1.40
2023-05-01T15:48:11.414Z,1.10
2023-05-01T15:50:38.384Z,1.40
2023-05-01T15:53:05.328Z,1.80
2023-05-01T15:55:32.553Z,1.30
2023-05-01T15:57:59.662Z,1.20
2023-05-01T16:00:26.648Z,1.30
2023-05-01T16:02:53.678Z,1.20
2023-05-01T16:05:21.526Z,1.50
2023-05-01T16:07:51.896Z,1.30
2023-05-01T16:10:19.001Z,1.20
2023-05-01T16:12:46.696Z,2.00
2023-05-01T16:15:13.911Z,1.50
2023-05-01T16:17:46.603Z,1.80
2023-05-01T16:20:14.418Z,2.40
2023-05-01T16:22:42.001Z,1.50
2023-05-01T16:25:12.136Z,1.60
2023-05-01T16:27:44.199Z,1.70
2023-05-01T16:30:12.214Z,1.40
2023-05-01T16:32:40.679Z,2.20
2023-05-01T16:35:10.620Z,2.60
2023-05-01T16:37:37.859Z,2.20
2023-05-01T16:40:05.673Z,1.50
2023-05-01T16:42:34.761Z,1.60
2023-05-01T16:45:01.761Z,1.90
2023-05-01T16:47:28.532Z,1.90
2023-05-01T16:49:56.825Z,1.80
2023-05-01T16:52:23.793Z,2.10
2023-05-01T16:54:51.394Z,2.20
2023-05-01T16:57:18.223Z,2.20
2023-05-01T16:59:45.232Z,2.00
2023-05-01T17:02:12.350Z,1.90
2023-05-01T17:04:39.354Z,2.00
2023-05-01T17:07:06.168Z,2.30
2023-05-01T17:09:33.335Z,2.20
2023-05-01T17:12:00.149Z,2.30
2023-05-01T17:14:28.916Z,2.50
2023-05-01T17:16:58.672Z,2.70
2023-05-01T17:19:25.916Z,2.60
2023-05-01T17:21:52.738Z,2.40
2023-05-01T17:24:19.879Z,2.80
2023-05-01T17:26:46.785Z,2.90
2023-05-01T17:29:13.594Z,3.10
2023-05-01T17:31:40.557Z,3.00
2023-05-01T17:34:07.466Z,2.90
2023-05-01T17:36:34.230Z,2.60
2023-05-01T17:39:01.671Z,2.30
2023-05-01T17:41:28.789Z,2.60
2023-05-01T17:43:55.648Z,2.30
2023-05-01T17:46:22.475Z,2.20
2023-05-01T17:48:49.386Z,3.40
2023-05-01T17:51:16.141Z,2.70
2023-05-01T17:53:42.904Z,2.00
2023-05-01T17:56:10.082Z,2.30
2023-05-01T17:58:37.132Z,2.00
2023-05-01T18:01:07.028Z,2.70
2023-05-01T18:03:34.080Z,4.10
2023-05-01T18:06:01.532Z,3.80
2023-05-01T18:08:28.420Z,3.60
2023-05-01T18:10:55.282Z,4.20
2023-05-01T18:13:28.170Z,4.60
2023-05-01T18:15:55.891Z,4.80
2023-05-01T18:18:23.254Z,4.50
2023-05-01T18:20:50.161Z,4.20
2023-05-01T18:30:49.850Z,4.80
2023-05-01T18:33:18.117Z,4.80
2023-05-01T18:35:45.252Z,5.10
2023-05-01T18:38:12.313Z,5.20
2023-05-01T18:40:39.678Z,5.30
2023-05-01T18:43:06.478Z,10.60
2023-05-01T18:45:33.295Z,10.60
2023-05-01T18:48:00.749Z,5.40
2023-05-01T18:50:27.862Z,4.30
2023-05-01T18:52:54.765Z,4.10
2023-05-01T18:55:21.634Z,4.10
2023-05-01T18:57:48.730Z,3.10
2023-05-01T19:00:16.768Z,3.40
2023-05-01T19:02:46.522Z,4.00
2023-05-01T19:05:14.011Z,5.00
2023-05-01T19:07:41.506Z,4.10
2023-05-01T19:10:08.990Z,4.10
2023-05-01T19:12:35.942Z,4.30
2023-05-01T19:15:03.078Z,4.30
2023-05-01T19:17:30.011Z,5.20
2023-05-01T19:19:57.157Z,3.90
2023-05-01T19:22:24.288Z,4.40
2023-05-01T19:24:51.585Z,5.20
2023-05-01T19:27:18.343Z,5.70
2023-05-01T19:29:45.107Z,3.60
2023-05-01T19:32:12.892Z,3.90
2023-05-01T19:34:39.822Z,4.00
2023-05-01T19:37:07.215Z,3.30
2023-05-01T19:39:34.043Z,3.60
2023-05-01T19:42:02.282Z,4.20
2023-05-01T19:44:29.265Z,3.80
2023-05-01T19:46:56.077Z,4.80
2023-05-01T19:49:25.265Z,3.60
2023-05-01T19:51:53.534Z,2.70
2023-05-01T19:54:22.354Z,2.90
2023-05-01T19:56:51.687Z,2.70
2023-05-01T19:59:19.582Z,3.40
2023-05-01T20:01:46.549Z,3.60
2023-05-01T20:04:13.478Z,3.80
2023-05-01T20:06:40.558Z,4.00
2023-05-01T20:09:07.676Z,4.20
2023-05-01T20:11:34.591Z,4.90
2023-05-01T20:14:03.645Z,5.40
2023-05-01T20:16:31.141Z,6.30
2023-05-01T20:18:58.128Z,5.80
2023-05-01T20:21:25.055Z,6.50
2023-05-01T20:23:52.218Z,7.00
2023-05-01T20:26:19.027Z,6.30
2023-05-01T20:28:45.930Z,5.60
2023-05-01T20:31:13.519Z,5.90
2023-05-01T20:33:40.424Z,6.60
2023-05-01T20:36:07.462Z,5.80
2023-05-01T20:38:42.295Z,6.30
2023-05-01T20:41:10.193Z,6.00
2023-05-01T20:43:37.168Z,5.90
2023-05-01T20:46:03.963Z,6.00
2023-05-01T20:48:32.281Z,6.40
2023-05-01T20:50:59.125Z,6.50
2023-05-01T20:53:25.875Z,6.30
2023-05-01T20:55:52.788Z,6.50
2023-05-01T20:58:19.572Z,6.30
2023-05-01T21:00:46.295Z,6.50
2023-05-01T21:03:15.288Z,7.20
2023-05-01T21:05:42.450Z,6.90
2023-05-01T21:08:09.284Z,7.20
2023-05-01T21:10:36.841Z,6.50
2023-05-01T21:13:03.796Z,5.00
2023-05-01T21:15:32.170Z,6.10
2023-05-01T21:17:59.819Z,6.40
2023-05-01T21:20:31.703Z,5.30
2023-05-01T21:23:00.151Z,4.80
2023-05-01T21:25:27.580Z,4.00
2023-05-01T21:27:54.350Z,4.00
2023-05-01T21:30:33.022Z,4.70
2023-05-01T21:33:05.557Z,4.70
2023-05-01T21:35:32.459Z,5.90
2023-05-01T21:37:59.194Z,6.00
2023-05-01T21:40:26.837Z,6.10
2023-05-01T21:42:54.103Z,5.50
2023-05-01T21:45:20.930Z,6.00
2023-05-01T21:47:49.038Z,5.50
2023-05-01T21:50:17.610Z,5.10
2023-05-01T21:52:45.930Z,5.40
2023-05-01T21:55:30.804Z,5.00
2023-05-01T21:57:58.175Z,5.10
2023-05-01T22:00:24.924Z,5.70
2023-05-01T22:02:52.058Z,5.30
2023-05-01T22:05:22.842Z,5.30
2023-05-01T22:07:52.093Z,5.30
2023-05-01T22:10:19.709Z,5.20
2023-05-01T22:12:48.812Z,5.80
2023-05-01T22:15:16.181Z,5.30
2023-05-01T22:17:42.973Z,5.20
2023-05-01T22:20:10.068Z,5.90
2023-05-01T22:22:39.100Z,5.90
2023-05-01T22:25:06.683Z,5.30
2023-05-01T22:27:33.894Z,5.40
2023-05-01T22:30:01.099Z,5.80
2023-05-01T22:32:28.372Z,5.60
2023-05-01T22:34:55.543Z,6.10
2023-05-01T22:37:22.447Z,5.30
2023-05-01T22:39:49.299Z,5.70
2023-05-01T22:42:16.407Z,5.60
2023-05-01T22:44:43.453Z,6.40
2023-05-01T22:47:10.390Z,5.50
2023-05-01T22:49:37.154Z,6.00
2023-05-01T22:52:04.025Z,6.50
2023-05-01T22:54:30.832Z,6.90
2023-05-01T22:56:57.663Z,6.20
2023-05-01T22:59:24.504Z,8.10
2023-05-01T23:01:51.307Z,7.10
2023-05-01T23:04:18.192Z,7.70
2023-05-01T23:06:45.297Z,7.20
2023-05-01T23:09:12.196Z,6.50
2023-05-01T23:11:39.806Z,5.90
2023-05-01T23:14:06.836Z,6.50
2023-05-01T23:16:38.699Z,6.10
2023-05-01T23:21:32.178Z,4.90
2023-05-01T23:23:58.924Z,5.90
2023-05-01T23:26:26.580Z,5.20
2023-05-01T23:28:53.691Z,5.60
2023-05-01T23:31:25.956Z,5.50
2023-05-01T23:33:53.367Z,5.50
2023-05-01T23:36:20.249Z,5.70
2023-05-01T23:38:47.411Z,6.80
2023-05-01T23:41:14.858Z,5.70
2023-05-01T23:43:41.755Z,6.50
2023-05-01T23:46:08.741Z,6.20
2023-05-01T23:48:36.013Z,6.20
2023-05-01T23:51:02.886Z,5.70
2023-05-01T23:53:29.827Z,5.30
2023-05-01T23:55:56.955Z,5.90
2023-05-01T23:58:24.625Z,6.20
